Time;durP1;ratioP1;P1;durP2;ratioP2;P2;SDS_P1;SDS_P2;PMS_P1;PMS_P2;Temp;Humidity;BMP_temperature;BMP_pressure;BME280_temperature;BME280_humidity;BME280_pressure;Samples;Min_cycle;Max_cycle;Signal;HPM_P1;HPM_P2
2022/05/17 00:03:40;;;;;;;7.57;2.27;;;;;;;16.06;49.49;100991.36;5217003;56;1141321;-77
2022/05/17 00:08:46;;;;;;;8.07;1.80;;;;;;;15.99;49.58;100990.27;5217209;56;1138999;-74
2022/05/17 00:13:52;;;;;;;3.53;1.90;;;;;;;15.91;49.81;100992.30;5217102;56;1139053;-75
2022/05/17 00:18:59;;;;;;;3.10;1.70;;;;;;;15.89;50.11;101002.78;5217256;56;1139010;-75
2022/05/17 00:24:05;;;;;;;2.30;1.67;;;;;;;15.91;50.17;100996.30;5216890;56;1139179;-75
2022/05/17 00:29:12;;;;;;;6.90;1.87;;;;;;;15.78;50.10;101005.08;5190863;56;1139085;-76
2022/05/17 00:34:18;;;;;;;5.50;2.07;;;;;;;15.74;50.32;101010.34;5176281;56;1138941;-76
2022/05/17 00:39:24;;;;;;;3.60;1.63;;;;;;;15.68;50.29;101006.91;5152992;57;1139072;-77
2022/05/17 00:44:45;;;;;;;9.73;2.40;;;;;;;15.58;50.36;100996.26;5096622;57;1139057;-78
2022/05/17 00:50:26;;;;;;;10.13;2.43;;;;;;;15.51;50.56;101004.90;5098583;57;1139029;-75
2022/05/17 00:55:44;;;;;;;5.67;2.03;;;;;;;15.44;50.73;100996.11;5190867;56;1141084;-78
2022/05/17 01:01:02;;;;;;;7.20;1.90;;;;;;;15.32;50.86;100989.23;5227258;56;1138999;-75
2022/05/17 01:06:08;;;;;;;6.80;1.93;;;;;;;15.21;51.21;100981.36;5244644;56;1136869;-78
2022/05/17 01:11:14;;;;;;;7.53;2.10;;;;;;;14.95;51.50;100978.37;5182289;56;1136931;-75
2022/05/17 01:16:20;;;;;;;3.20;1.60;;;;;;;14.95;51.50;100978.37;5156811;57;1136916;-77
2022/05/17 01:21:26;;;;;;;9.43;2.30;;;;;;;14.93;51.56;100985.65;5156726;57;1136978;-76
2022/05/17 01:26:36;;;;;;;3.67;1.90;;;;;;;14.87;51.63;100974.68;5156825;57;1137129;-74
2022/05/17 01:31:42;;;;;;;4.13;1.57;;;;;;;14.80;51.81;100981.55;5127683;57;1137022;-77
2022/05/17 01:36:48;;;;;;;6.83;2.13;;;;;;;14.67;52.05;100985.74;5156888;57;1136930;-76
2022/05/17 01:41:53;;;;;;;4.10;1.93;;;;;;;14.55;52.11;100984.16;5110014;57;1136846;-75
2022/05/17 01:46:59;;;;;;;4.43;1.97;;;;;;;14.45;52.43;100984.12;5194690;56;1136842;-74
2022/05/17 01:52:06;;;;;;;3.70;2.10;;;;;;;14.42;52.56;100984.38;5215609;56;1136820;-75
2022/05/17 01:57:11;;;;;;;8.47;3.23;;;;;;;14.30;52.79;100988.91;5207219;56;1137006;-75
2022/05/17 02:02:17;;;;;;;6.57;2.03;;;;;;;14.18;52.87;100993.95;5208815;56;1136857;-76
2022/05/17 02:07:23;;;;;;;2.87;1.80;;;;;;;14.15;53.04;100998.20;5227724;56;1136942;-74
2022/05/17 02:12:29;;;;;;;6.17;1.73;;;;;;;14.04;53.02;100992.95;5196315;56;1136940;-75
2022/05/17 02:17:38;;;;;;;2.47;1.77;;;;;;;13.94;53.08;100990.69;5227798;56;1137106;-75
2022/05/17 02:22:44;;;;;;;3.87;2.00;;;;;;;13.84;53.32;100987.98;5227765;56;1134828;-76
2022/05/17 02:27:49;;;;;;;1.63;1.50;;;;;;;13.73;53.53;100988.88;5227743;56;1135027;-75
2022/05/17 02:32:56;;;;;;;8.43;2.35;;;;;;;13.59;54.21;100997.16;5208629;56;1139577;-77
2022/05/17 02:38:02;;;;;;;2.93;1.67;;;;;;;13.49;54.42;100996.20;5293242;55;1138940;-74
2022/05/17 02:43:12;;;;;;;2.67;1.80;;;;;;;13.40;54.97;101004.95;5238362;56;1138937;-74
2022/05/17 02:48:17;;;;;;;4.37;2.00;;;;;;;13.36;55.07;101008.81;5238206;56;1139186;-76
2022/05/17 02:53:23;;;;;;;8.27;2.40;;;;;;;13.28;55.35;101020.08;5240848;56;1139031;-75
2022/05/17 02:58:29;;;;;;;5.33;2.17;;;;;;;13.18;55.49;101023.58;5216277;56;1139016;-73
2022/05/17 03:03:40;;;;;;;5.03;2.13;;;;;;;13.16;55.80;101031.66;5252036;56;1139058;-76
2022/05/17 03:08:46;;;;;;;3.43;1.80;;;;;;;13.09;55.92;101029.61;5251935;56;1139600;-74
2022/05/17 03:13:52;;;;;;;8.90;2.53;;;;;;;13.00;56.37;101029.36;5251942;56;1139203;-75
2022/05/17 03:18:59;;;;;;;5.23;2.27;;;;;;;12.87;56.65;101027.80;5251887;56;1139015;-75
2022/05/17 03:24:05;;;;;;;12.80;2.40;;;;;;;12.81;57.26;101025.16;5251894;56;1139032;-74
2022/05/17 03:29:11;;;;;;;5.63;2.00;;;;;;;12.80;57.58;101031.92;5216124;56;1141210;-76
2022/05/17 03:34:18;;;;;;;8.70;1.97;;;;;;;12.75;58.22;101037.58;5287760;55;1138967;-75
2022/05/17 03:39:23;;;;;;;3.57;1.77;;;;;;;12.69;58.47;101038.89;5251916;56;1139473;-74
2022/05/17 03:44:30;;;;;;;3.90;1.70;;;;;;;12.75;58.62;101045.55;5251898;56;1138928;-76
2022/05/17 03:49:39;;;;;;;3.70;2.13;;;;;;;12.82;58.85;101047.25;5251875;56;1139038;-74
2022/05/17 03:54:45;;;;;;;5.13;2.10;;;;;;;12.81;59.22;101042.42;5251637;55;1139316;-76
2022/05/17 03:59:51;;;;;;;4.40;2.30;;;;;;;12.71;59.10;101052.05;5251733;56;1138997;-75
2022/05/17 04:04:57;;;;;;;8.17;2.17;;;;;;;12.68;59.58;101050.47;5247518;55;1139164;-74
2022/05/17 04:10:03;;;;;;;11.73;2.90;;;;;;;12.68;59.79;101046.48;5225702;56;1139065;-74
2022/05/17 04:15:14;;;;;;;6.13;3.10;;;;;;;12.65;59.98;101057.37;5225687;56;1141178;-76
2022/05/17 04:20:19;;;;;;;6.87;3.10;;;;;;;12.69;60.14;101056.14;5225665;56;1138948;-76
2022/05/17 04:25:27;;;;;;;7.10;2.53;;;;;;;12.77;60.25;101056.04;5225728;56;1139107;-75
2022/05/17 04:30:33;;;;;;;2.23;1.87;;;;;;;12.80;60.58;101057.14;5222206;55;1139132;-75
2022/05/17 04:35:39;;;;;;;3.43;2.37;;;;;;;12.82;61.29;101052.55;5258184;55;1139029;-74
2022/05/17 04:40:46;;;;;;;11.35;2.77;;;;;;;12.85;60.89;101049.63;5251423;56;1138987;-76
2022/05/17 04:45:54;;;;;;;11.13;5.63;;;;;;;13.00;60.43;101057.72;5251727;56;1141425;-76
2022/05/17 04:50:59;;;;;;;5.37;2.70;;;;;;;13.12;60.14;101063.89;5251544;56;1141174;-74
2022/05/17 04:56:06;;;;;;;11.73;3.10;;;;;;;13.21;59.73;101056.05;5251502;56;1138952;-75
2022/05/17 05:01:12;;;;;;;7.03;3.17;;;;;;;13.26;58.73;101061.85;5238990;55;1140957;-74
2022/05/17 05:06:18;;;;;;;8.90;2.60;;;;;;;13.36;58.10;101066.78;5263255;55;1139081;-74
2022/05/17 05:11:24;;;;;;;9.77;2.90;;;;;;;13.46;58.08;101061.55;5258379;55;1139327;-74
2022/05/17 05:16:29;;;;;;;11.53;3.03;;;;;;;13.55;56.86;101054.18;5273159;55;1139257;-75
2022/05/17 05:21:35;;;;;;;7.23;2.63;;;;;;;13.63;55.95;101058.86;5252944;55;1141219;-75
2022/05/17 05:26:42;;;;;;;7.93;2.17;;;;;;;13.68;56.18;101060.66;5293570;55;1138912;-76
2022/05/17 05:31:47;;;;;;;18.87;5.10;;;;;;;13.70;56.03;101060.91;5306712;55;1138937;-74
2022/05/17 05:36:53;;;;;;;11.07;2.67;;;;;;;13.73;55.84;101063.80;5336475;55;1139040;-78
2022/05/17 05:41:59;;;;;;;8.90;2.40;;;;;;;13.80;56.15;101066.78;5250637;56;1139212;-75
2022/05/17 05:47:05;;;;;;;13.20;2.50;;;;;;;13.91;56.14;101070.72;5250862;56;1136859;-77
2022/05/17 05:52:11;;;;;;;10.60;1.77;;;;;;;14.01;55.47;101065.86;5251043;56;1139240;-76
2022/05/17 05:57:17;;;;;;;11.37;2.20;;;;;;;14.11;55.08;101064.59;5263879;55;1139269;-74
2022/05/17 06:02:22;;;;;;;6.20;1.73;;;;;;;14.15;54.50;101069.18;5272795;55;1139164;-74
2022/05/17 06:07:28;;;;;;;9.57;1.70;;;;;;;14.18;53.80;101079.57;5221084;56;1136921;-74
2022/05/17 06:12:34;;;;;;;7.90;2.53;;;;;;;14.23;53.97;101081.34;5220979;56;1136916;-77
2022/05/17 06:17:41;;;;;;;3.20;1.93;;;;;;;14.30;53.22;101094.02;5220936;56;1136952;-75
2022/05/17 06:22:47;;;;;;;6.90;2.37;;;;;;;14.33;52.57;101085.78;5220864;56;1137229;-76
2022/05/17 06:27:53;;;;;;;13.53;2.47;;;;;;;14.41;52.78;101081.16;5249674;55;1136932;-74
2022/05/17 06:33:00;;;;;;;6.47;2.50;;;;;;;14.46;53.35;101086.09;5266293;55;1139316;-77
2022/05/17 06:38:07;;;;;;;4.47;2.10;;;;;;;14.46;53.81;101092.27;5305376;55;1136901;-78
2022/05/17 06:43:13;;;;;;;9.07;2.70;;;;;;;14.48;53.65;101092.14;5278420;56;1136901;-77
2022/05/17 06:48:20;;;;;;;17.10;3.00;;;;;;;14.52;53.85;101098.37;5278411;55;1136856;-77
2022/05/17 06:53:26;;;;;;;7.37;3.00;;;;;;;14.59;52.96;101098.72;5278260;55;1138871;-77
2022/05/17 06:58:32;;;;;;;3.23;2.30;;;;;;;14.68;53.16;101104.09;5278137;56;1137297;-77
2022/05/17 07:03:37;;;;;;;5.17;2.13;;;;;;;14.76;53.80;101108.29;5258639;55;1137006;-78
2022/05/17 07:08:43;;;;;;;4.33;1.80;;;;;;;14.86;53.25;101110.15;5221293;56;1135369;-76
2022/05/17 07:13:49;;;;;;;3.87;2.23;;;;;;;14.98;53.64;101116.59;5221369;56;1135005;-76
2022/05/17 07:18:55;;;;;;;8.10;2.67;;;;;;;15.03;52.60;101119.70;5204591;55;1139016;-76
2022/05/17 07:24:01;;;;;;;27.10;3.60;;;;;;;15.07;52.16;101136.27;5259510;56;1138915;-77
2022/05/17 07:29:06;;;;;;;14.83;3.33;;;;;;;15.11;52.53;101123.89;5235147;55;1141279;-76
2022/05/17 07:34:12;;;;;;;9.30;2.27;;;;;;;15.12;52.33;101140.73;5278050;55;1141421;-74
2022/05/17 07:39:18;;;;;;;4.93;1.87;;;;;;;15.11;52.61;101148.36;5264096;55;1138923;-73
2022/05/17 07:44:24;;;;;;;17.30;2.17;;;;;;;15.11;52.12;101159.02;5277418;55;1139123;-75
2022/05/17 07:49:30;;;;;;;3.77;1.47;;;;;;;15.16;52.13;101163.44;5285899;55;1141107;-75
2022/05/17 07:54:37;;;;;;;5.10;1.50;;;;;;;15.15;51.49;101164.41;5252002;55;1138991;-76
2022/05/17 07:59:43;;;;;;;8.17;1.40;;;;;;;15.16;51.42;101166.11;5209352;56;1139031;-76
2022/05/17 08:04:48;;;;;;;3.33;1.70;;;;;;;15.20;50.69;101167.53;5167292;56;1139014;-74
2022/05/17 08:09:54;;;;;;;5.90;1.83;;;;;;;15.27;50.80;101171.38;5210278;56;1139523;-71
2022/05/17 08:15:00;;;;;;;8.20;2.00;;;;;;;15.38;51.09;101175.27;5241057;55;1138887;-75
2022/05/17 08:20:09;;;;;;;1.87;1.47;;;;;;;15.54;50.42;101180.10;5241153;55;1139025;-76
2022/05/17 08:30:43;;;;;;;2.70;1.17;;;;;;;15.67;49.17;101178.07;5243731;55;1139066;-75
2022/05/17 08:36:02;;;;;;;4.23;1.97;;;;;;;15.90;50.54;101181.83;5213727;56;1138908;-75
2022/05/17 08:41:31;;;;;;;5.10;1.67;;;;;;;16.13;48.57;101185.97;5169672;56;1139787;-75
2022/05/17 08:47:06;;;;;;;9.07;2.20;;;;;;;16.34;49.12;101187.19;5193785;56;1138925;-74
2022/05/17 08:52:19;;;;;;;1.57;1.23;;;;;;;16.65;49.17;101191.41;5189785;56;1139084;-75
2022/05/17 08:57:34;;;;;;;7.30;1.77;;;;;;;16.80;47.20;101191.84;5163463;56;1139038;-75
2022/05/17 09:02:59;;;;;;;10.80;1.63;;;;;;;17.01;48.68;101192.48;5206816;56;1136906;-75
2022/05/17 09:08:51;;;;;;;1.73;1.60;;;;;;;17.30;46.86;101206.27;5240843;56;1139245;-75
2022/05/17 09:14:12;;;;;;;6.97;1.70;;;;;;;17.41;45.75;101200.75;5102242;57;1137024;-75
2022/05/17 09:19:18;;;;;;;7.10;1.10;;;;;;;17.59;44.92;101202.48;5004365;59;21112;-75
2022/05/17 09:24:27;;;;;;;5.17;1.40;;;;;;;17.73;44.66;101191.81;5109232;57;1134803;-75
2022/05/17 09:29:47;;;;;;;3.87;1.30;;;;;;;17.98;45.86;101188.11;5046793;57;1138987;-73
2022/05/17 09:35:06;;;;;;;7.78;1.16;;;;;;;18.16;44.01;101191.66;5026312;58;1138936;-76
2022/05/17 09:40:15;;;;;;;2.20;0.90;;;;;;;18.31;43.44;101197.33;5228536;56;1138895;-77
2022/05/17 09:45:25;;;;;;;9.40;1.43;;;;;;;18.39;42.93;101193.37;5230162;56;1139043;-77
2022/05/17 09:56:08;;;;;;;9.90;1.23;;;;;;;18.51;41.23;101196.16;5241389;56;1138915;-74
2022/05/17 10:01:24;;;;;;;1.80;0.70;;;;;;;18.79;41.86;101192.40;5194370;56;1139004;-76
2022/05/17 10:06:37;;;;;;;5.77;1.30;;;;;;;18.96;40.93;101194.20;5164103;57;1138951;-74
2022/05/17 10:11:51;;;;;;;3.63;1.20;;;;;;;19.13;42.99;101193.82;5162316;57;1138994;-74
2022/05/17 10:17:18;;;;;;;4.22;1.32;;;;;;;19.32;41.50;101182.87;5163005;57;1139021;-74
2022/05/17 10:22:34;;;;;;;15.38;1.55;;;;;;;19.72;42.72;101181.40;5157172;57;1138958;-75
2022/05/17 10:27:51;;;;;;;4.20;1.20;;;;;;;20.20;41.70;101186.07;5156979;57;1141216;-72
2022/05/17 10:33:06;;;;;;;9.70;2.55;;;;;;;20.37;39.16;101181.59;5142208;56;1137156;-75
2022/05/17 10:38:24;;;;;;;6.03;1.22;;;;;;;20.37;40.29;101176.22;5141967;56;1136974;-74
2022/05/17 10:43:40;;;;;;;10.98;1.40;;;;;;;20.63;40.37;101176.05;5092647;57;1137245;-76
2022/05/17 10:49:17;;;;;;;6.92;1.70;;;;;;;20.91;39.73;101180.60;5129987;57;1139046;-77
2022/05/17 10:54:44;;;;;;;2.42;0.88;;;;;;;21.17;40.05;101173.15;5082983;57;1137163;-76
2022/05/17 11:00:22;;;;;;;7.80;1.20;;;;;;;21.20;37.55;101171.50;5086133;56;1139100;-74
2022/05/17 11:06:22;;;;;;;1.30;1.17;;;;;;;21.09;36.19;101167.77;5146844;56;1138940;-77
2022/05/17 11:11:47;;;;;;;11.35;1.47;;;;;;;21.23;37.71;101172.50;5142416;56;1138909;-75
2022/05/17 11:17:31;;;;;;;1.10;0.80;;;;;;;21.45;36.08;101168.72;5213980;55;1141039;-75
2022/05/17 11:22:48;;;;;;;3.67;1.30;;;;;;;21.46;35.57;101164.51;5221354;55;1139009;-77
2022/05/17 11:28:09;;;;;;;3.30;0.95;;;;;;;21.66;33.16;101165.78;5236600;55;1138973;-74
2022/05/17 11:33:38;;;;;;;5.72;1.17;;;;;;;21.63;35.10;101164.78;5298577;55;1136896;-76
2022/05/17 11:38:51;;;;;;;1.92;0.80;;;;;;;21.77;33.59;101179.35;5253754;55;1137114;-74
2022/05/17 11:44:13;;;;;;;10.95;1.30;;;;;;;21.74;33.11;101177.00;5289425;55;1136938;-74
2022/05/17 11:49:25;;;;;;;42.20;2.77;;;;;;;21.83;33.03;101180.52;5293029;55;1138988;-75
2022/05/17 11:54:52;;;;;;;5.87;1.22;;;;;;;21.73;32.60;101186.94;5299702;55;1139232;-75
2022/05/17 12:00:07;;;;;;;4.35;0.88;;;;;;;21.69;32.30;101190.17;5293712;55;1138935;-76
2022/05/17 12:05:46;;;;;;;2.98;1.42;;;;;;;21.75;32.67;101185.41;5181423;56;1138931;-77
2022/05/17 12:11:09;;;;;;;8.65;1.40;;;;;;;21.86;33.53;101193.09;5171118;56;1139080;-75
2022/05/17 12:16:19;;;;;;;39.57;3.40;;;;;;;21.72;31.88;101193.33;5250379;56;1138965;-75
2022/05/17 12:21:47;;;;;;;6.60;1.10;;;;;;;21.71;31.40;101187.61;5267423;55;1141059;-75
2022/05/17 12:27:25;;;;;;;10.08;1.22;;;;;;;21.87;33.19;101191.24;5322186;54;1138981;-76
2022/05/17 12:32:31;;;;;;;14.90;1.77;;;;;;;22.00;31.93;101184.80;5384338;54;1141276;-75
2022/05/17 12:37:43;;;;;;;10.25;1.67;;;;;;;22.14;32.05;101194.02;5278562;55;1141050;-77
2022/05/17 12:43:11;;;;;;;6.70;1.10;;;;;;;22.16;30.56;101192.79;5231137;56;1141089;-78
2022/05/17 12:48:20;;;;;;;4.35;1.55;;;;;;;22.17;30.60;101194.97;5250635;55;1138980;-78
2022/05/17 12:53:45;;;;;;;6.60;1.60;;;;;;;22.22;30.47;101195.30;5287170;55;1137124;-76
2022/05/17 12:58:57;;;;;;;5.58;1.45;;;;;;;22.26;31.45;101196.11;5234389;54;1136847;-76
2022/05/17 13:04:16;;;;;;;7.13;1.50;;;;;;;22.34;30.58;101192.00;5232007;55;1137027;-76
2022/05/17 13:09:25;;;;;;;15.88;1.50;;;;;;;22.48;31.90;101193.08;5263792;55;1136927;-76
2022/05/17 13:14:34;;;;;;;26.50;2.65;;;;;;;22.85;32.05;101186.08;5221704;55;1138984;-76
2022/05/17 13:19:41;;;;;;;15.72;1.42;;;;;;;23.08;31.58;101195.78;5249590;55;1138961;-75
2022/05/17 13:24:52;;;;;;;6.83;1.20;;;;;;;23.19;30.41;101190.97;5169036;55;1138971;-77
2022/05/17 13:30:04;;;;;;;13.28;5.00;;;;;;;23.15;30.42;101183.75;5229113;56;1136943;-76
2022/05/17 13:35:26;;;;;;;10.15;1.07;;;;;;;23.12;30.92;101183.60;5208899;56;21157;-76
2022/05/17 13:40:55;;;;;;;12.20;3.05;;;;;;;22.96;29.81;101188.31;5227343;54;1136841;-76
2022/05/17 13:46:23;;;;;;;4.45;1.12;;;;;;;22.68;29.20;101187.53;5399051;54;1141276;-75
2022/05/17 13:52:00;;;;;;;6.20;1.27;;;;;;;22.56;29.77;101180.89;5370039;54;1139251;-76
2022/05/17 13:57:22;;;;;;;3.67;0.70;;;;;;;22.76;31.21;101190.69;5219944;56;1139002;-76
2022/05/17 14:02:41;;;;;;;5.45;1.25;;;;;;;22.95;31.43;101183.44;5290634;55;1138916;-77
2022/05/17 14:13:32;;;;;;;13.45;1.45;;;;;;;22.97;31.71;101181.91;5276133;55;1139068;-74
2022/05/17 14:18:41;;;;;;;17.65;1.27;;;;;;;23.17;30.99;101183.06;5229155;55;1141225;-74
2022/05/17 14:23:48;;;;;;;2.83;0.90;;;;;;;23.20;30.66;101181.85;5245150;55;1139117;-76
2022/05/17 14:28:54;;;;;;;6.42;1.47;;;;;;;23.26;31.03;101183.28;5309872;55;1137263;-76
2022/05/17 14:34:00;;;;;;;2.50;1.10;;;;;;;23.44;30.36;101182.41;5322859;55;1136950;-76
2022/05/17 14:39:06;;;;;;;5.40;1.00;;;;;;;23.44;30.36;101182.41;5323156;54;1136922;-76
2022/05/17 14:44:13;;;;;;;5.85;1.00;;;;;;;23.43;29.85;101181.23;5221022;56;1136907;-77
2022/05/17 14:49:28;;;;;;;9.13;4.80;;;;;;;23.46;30.56;101181.71;5220887;56;1136937;-75
2022/05/17 14:54:40;;;;;;;1.00;0.90;;;;;;;23.43;30.36;101179.89;5220688;56;1136852;-77
2022/05/17 14:59:42;;;;;;;19.77;2.27;;;;;;;23.59;30.86;101170.78;5223817;56;1137039;-75
2022/05/17 15:04:48;;;;;;;14.50;1.57;;;;;;;23.67;30.85;101182.85;5272237;55;1138964;-74
2022/05/17 15:10:10;;;;;;;19.95;1.47;;;;;;;23.74;30.47;101180.55;5309572;55;1139114;-75
2022/05/17 15:15:21;;;;;;;2.58;0.95;;;;;;;23.77;30.02;101185.58;5309448;55;1139020;-75
2022/05/17 15:20:28;;;;;;;1.75;0.60;;;;;;;23.79;30.09;101181.34;5285317;55;1134846;-76
2022/05/17 15:25:35;;;;;;;12.13;1.07;;;;;;;23.80;29.65;101184.36;5242876;55;1138889;-75
2022/05/17 15:30:42;;;;;;;5.57;1.00;;;;;;;23.69;29.00;101188.88;5241183;56;1141073;-74
2022/05/17 15:35:48;;;;;;;13.53;1.40;;;;;;;23.58;29.21;101191.55;5288934;54;1139017;-76
2022/05/17 15:40:59;;;;;;;1.97;1.20;;;;;;;23.50;29.76;101191.63;5292852;54;1141259;-75
2022/05/17 15:46:18;;;;;;;5.12;1.50;;;;;;;23.49;29.76;101195.35;5229670;55;1138936;-75
2022/05/17 15:56:53;;;;;;;3.60;0.78;;;;;;;23.50;29.41;101192.98;5280357;55;1139081;-78
2022/05/17 16:01:59;;;;;;;57.83;3.00;;;;;;;23.39;28.53;101194.27;5308195;55;1138924;-74
2022/05/17 16:08:01;;;;;;;3.85;1.20;;;;;;;23.17;28.28;101198.41;5270284;55;1140994;-76
2022/05/17 16:12:13;;;;;;;5.90;0.62;;;;;;;23.14;28.87;101195.56;5273072;55;1139047;-75
2022/05/17 16:17:19;;;;;;;8.13;1.17;;;;;;;23.19;28.59;101194.51;5278209;55;1139159;-74
2022/05/17 16:22:24;;;;;;;2.08;0.93;;;;;;;23.14;28.37;101202.31;5195391;56;1138950;-77
2022/05/17 16:27:32;;;;;;;7.00;0.70;;;;;;;23.01;28.81;101206.16;5222669;55;1138960;-76
2022/05/17 16:32:41;;;;;;;3.20;0.37;;;;;;;22.81;28.70;101199.08;5193994;55;1139084;-75
2022/05/17 16:37:47;;;;;;;6.95;0.82;;;;;;;22.75;28.85;101199.80;5304536;55;1138970;-77
2022/05/17 16:42:54;;;;;;;4.55;1.05;;;;;;;22.60;28.72;101198.40;5325607;54;1139123;-76
2022/05/17 16:48:02;;;;;;;3.08;1.92;;;;;;;22.45;29.20;101204.24;5287979;54;1138987;-76
2022/05/17 16:53:10;;;;;;;24.63;2.83;;;;;;;22.39;29.07;101200.39;5299750;55;1139089;-76
2022/05/17 16:58:16;;;;;;;3.23;1.23;;;;;;;22.31;29.56;101206.34;5250546;55;1141062;-76
2022/05/17 17:03:21;;;;;;;9.85;1.10;;;;;;;22.04;28.54;101205.83;5206867;55;1139205;-75
2022/05/17 17:08:28;;;;;;;15.60;1.90;;;;;;;21.72;29.04;101210.83;5260400;55;1138996;-75
2022/05/17 17:13:33;;;;;;;12.93;1.35;;;;;;;21.47;29.10;101214.64;5221518;56;1141098;-75
2022/05/17 17:18:40;;;;;;;12.78;1.22;;;;;;;21.23;29.32;101216.90;5221665;55;1141491;-74
2022/05/17 17:23:47;;;;;;;16.15;1.17;;;;;;;20.86;29.42;101228.66;5299518;55;1141206;-75
2022/05/17 17:28:53;;;;;;;9.45;1.10;;;;;;;20.64;29.72;101239.56;5299485;55;1141079;-74
2022/05/17 17:39:25;;;;;;;10.48;1.05;;;;;;;20.35;30.58;101249.39;5266346;55;1136890;-73
2022/05/17 17:44:31;;;;;;;12.82;1.50;;;;;;;20.32;31.05;101263.99;5299428;55;1138984;-73
2022/05/17 17:49:37;;;;;;;7.75;0.98;;;;;;;20.10;30.14;101276.70;5299511;55;1139179;-73
2022/05/17 17:54:43;;;;;;;14.10;2.50;;;;;;;19.77;30.54;101279.74;5283667;56;1136933;-74
2022/05/17 17:59:49;;;;;;;5.47;1.30;;;;;;;19.50;30.68;101300.05;5283045;55;1138976;-73
2022/05/17 18:04:55;;;;;;;13.53;1.98;;;;;;;19.17;30.62;101303.80;5283749;55;1137141;-75
2022/05/17 18:10:01;;;;;;;6.00;1.40;;;;;;;18.91;30.91;101320.34;5304839;55;1139181;-73
2022/05/17 18:15:09;;;;;;;6.37;1.47;;;;;;;18.67;30.81;101332.98;5310209;55;1137115;-73
2022/05/17 18:20:21;;;;;;;17.07;1.80;;;;;;;18.43;31.02;101336.22;5290286;55;1136963;-73
2022/05/17 18:25:28;;;;;;;10.13;1.35;;;;;;;18.22;31.37;101349.01;5299548;56;1138983;-73
2022/05/17 18:30:34;;;;;;;3.55;1.02;;;;;;;17.95;31.22;101357.02;5299462;56;1138994;-74
2022/05/17 18:35:40;;;;;;;6.58;1.07;;;;;;;17.70;31.62;101369.21;5299779;55;1136905;-73
2022/05/17 18:40:48;;;;;;;2.30;1.07;;;;;;;17.60;31.92;101377.20;5300124;55;1136805;-73
2022/05/17 18:45:53;;;;;;;2.40;1.20;;;;;;;17.39;32.02;101391.26;5300097;55;1136939;-73
2022/05/17 18:50:59;;;;;;;24.07;1.42;;;;;;;17.35;32.45;101404.55;5300124;55;1136852;-74
2022/05/17 18:56:06;;;;;;;13.43;1.52;;;;;;;17.30;32.55;101412.14;5300356;55;1137489;-73
2022/05/17 19:01:17;;;;;;;24.87;5.45;;;;;;;17.10;32.17;101413.98;5384680;54;1136899;-74
2022/05/17 19:06:24;;;;;;;3.87;2.03;;;;;;;16.79;32.06;101426.09;5306361;55;1141211;-75
2022/05/17 19:17:00;;;;;;;2.73;1.27;;;;;;;16.35;32.19;101451.32;5290417;55;1139003;-75
2022/05/17 19:22:07;;;;;;;12.73;2.10;;;;;;;16.22;32.01;101464.53;5272320;55;1139077;-75
2022/05/17 19:27:13;;;;;;;5.93;3.03;;;;;;;16.14;32.25;101469.21;5306827;55;1141251;-76
2022/05/17 19:32:29;;;;;;;4.67;2.27;;;;;;;16.08;32.27;101469.23;5308822;55;1139061;-75
2022/05/17 19:43:09;;;;;;;5.40;0.98;;;;;;;15.82;32.75;101484.80;5300030;55;1139202;-75
2022/05/17 19:48:18;;;;;;;4.70;1.50;;;;;;;15.74;33.08;101500.59;5292517;55;1138932;-76
2022/05/17 19:53:24;;;;;;;5.90;1.50;;;;;;;15.68;33.25;101514.45;5299475;55;1139021;-77
2022/05/17 19:58:30;;;;;;;5.37;1.23;;;;;;;15.47;33.33;101522.84;5284125;55;1139164;-77
2022/05/17 20:03:36;;;;;;;3.23;1.80;;;;;;;15.31;33.35;101533.07;5278536;55;1139058;-77
2022/05/17 20:08:44;;;;;;;12.77;2.53;;;;;;;15.25;33.46;101539.77;5233048;55;1139536;-75
2022/05/17 20:13:50;;;;;;;5.30;1.10;;;;;;;15.09;33.50;101548.63;5211544;56;1140995;-77
2022/05/17 20:18:58;;;;;;;8.50;1.77;;;;;;;14.84;33.88;101555.05;5144405;56;1139019;-74
2022/05/17 20:24:04;;;;;;;2.60;1.20;;;;;;;14.64;34.19;101563.77;5044186;58;1139113;-77
2022/05/17 20:29:10;;;;;;;1.33;1.13;;;;;;;14.50;34.51;101566.66;5034907;57;1139015;-77
2022/05/17 20:34:18;;;;;;;4.80;1.00;;;;;;;14.38;34.74;101580.38;5177903;56;1138837;-76
2022/05/17 20:39:31;;;;;;;6.23;1.10;;;;;;;14.30;35.02;101586.78;5161076;56;1139086;-77
2022/05/17 20:44:33;;;;;;;9.73;1.50;;;;;;;14.16;35.24;101592.30;5168479;56;1138998;-75
2022/05/17 20:49:39;;;;;;;1.03;0.93;;;;;;;14.03;35.99;101597.70;5169886;56;1138991;-76
2022/05/17 20:54:46;;;;;;;2.97;1.13;;;;;;;13.91;36.03;101600.77;5187894;56;1138986;-77
2022/05/17 20:59:52;;;;;;;10.13;1.37;;;;;;;13.88;36.33;101612.98;5209575;56;1139051;-77
2022/05/17 21:04:58;;;;;;;3.60;2.20;;;;;;;13.87;36.52;101623.26;5186693;56;1141088;-76
2022/05/17 21:10:05;;;;;;;4.30;1.60;;;;;;;13.79;36.79;101624.77;5214949;55;1137232;-78
2022/05/17 21:15:13;;;;;;;8.03;1.60;;;;;;;13.61;37.06;101626.47;5255330;55;1136963;-79
2022/05/17 21:20:18;;;;;;;6.17;1.50;;;;;;;13.48;37.70;101638.95;5286865;55;1136900;-79
2022/05/17 21:25:25;;;;;;;8.77;1.63;;;;;;;13.35;37.85;101648.77;5286290;54;1136851;-75
2022/05/17 21:30:31;;;;;;;3.60;1.10;;;;;;;13.28;38.38;101649.70;5285433;55;1137119;-75
2022/05/17 21:35:39;;;;;;;2.17;1.60;;;;;;;13.23;38.63;101654.96;5302589;55;1137044;-76
2022/05/17 21:40:47;;;;;;;9.93;2.20;;;;;;;13.09;38.89;101659.88;5283864;55;1136854;-77
2022/05/17 21:45:54;;;;;;;5.73;1.40;;;;;;;12.94;39.19;101673.75;5278237;55;1137021;-76
2022/05/17 21:51:00;;;;;;;9.70;1.90;;;;;;;12.80;39.35;101676.98;5278303;55;1137176;-76
2022/05/17 21:56:07;;;;;;;6.53;1.20;;;;;;;12.61;39.86;101692.83;5284509;55;1136925;-76
2022/05/17 22:01:12;;;;;;;9.33;1.60;;;;;;;12.47;39.91;101688.08;5255502;55;1136968;-76
2022/05/17 22:06:18;;;;;;;1.40;1.30;;;;;;;12.33;40.24;101692.97;5292680;55;1137095;-76
2022/05/17 22:16:47;;;;;;;3.87;1.32;;;;;;;12.16;40.97;101699.86;5329921;55;1134981;-77
2022/05/17 22:21:52;;;;;;;1.70;1.60;;;;;;;11.97;41.39;101704.17;5326178;55;1134842;-76
2022/05/17 22:26:58;;;;;;;6.25;1.60;;;;;;;11.81;41.42;101714.06;5300559;55;1134757;-78
2022/05/17 22:32:05;;;;;;;2.30;1.10;;;;;;;11.74;41.69;101712.73;5307851;55;1139123;-76
2022/05/17 22:37:11;;;;;;;3.25;1.52;;;;;;;11.54;42.04;101720.12;5391833;55;1138946;-76
2022/05/17 22:42:17;;;;;;;4.00;0.97;;;;;;;11.40;42.50;101730.73;5391630;54;1142130;-77
2022/05/17 22:47:23;;;;;;;5.30;1.60;;;;;;;11.33;42.74;101740.45;5385710;55;1138974;-77
2022/05/17 22:52:28;;;;;;;4.80;1.27;;;;;;;11.17;43.07;101749.80;5301046;55;1139108;-78
2022/05/17 22:57:34;;;;;;;4.90;1.33;;;;;;;11.05;43.39;101759.34;5311031;55;1139122;-75
2022/05/17 23:02:40;;;;;;;2.23;0.93;;;;;;;10.94;43.50;101764.44;5278752;55;1139009;-77
2022/05/17 23:07:45;;;;;;;4.07;2.07;;;;;;;10.85;43.78;101777.72;5221926;56;1139050;-75
2022/05/17 23:12:51;;;;;;;2.00;1.23;;;;;;;10.85;43.78;101777.72;5221704;56;1139045;-78
2022/05/17 23:17:57;;;;;;;8.63;2.00;;;;;;;10.71;44.05;101780.80;5139219;56;1138977;-79
2022/05/17 23:23:03;;;;;;;4.27;1.73;;;;;;;10.64;44.16;101777.67;5135634;57;1139425;-77
2022/05/17 23:28:27;;;;;;;1.67;1.30;;;;;;;10.55;44.13;101777.71;5136195;57;1138907;-75
2022/05/17 23:33:34;;;;;;;3.85;1.52;;;;;;;10.42;44.30;101779.36;5164804;56;1138826;-78
2022/05/17 23:38:40;;;;;;;7.63;1.40;;;;;;;10.41;44.45;101786.05;5221764;56;1139022;-76
2022/05/17 23:43:45;;;;;;;3.67;1.07;;;;;;;10.37;44.37;101785.39;5221558;56;1139003;-77
2022/05/17 23:48:51;;;;;;;0.80;0.80;;;;;;;10.33;44.60;101799.72;5221680;56;1139231;-75
2022/05/17 23:53:57;;;;;;;6.23;1.20;;;;;;;10.35;44.67;101793.03;5221738;56;1138886;-78
2022/05/17 23:59:03;;;;;;;5.00;1.40;;;;;;;10.29;44.64;101800.83;5221648;56;1138928;-77
